Terminal Aerodrome Forecast
Issued by NWS

Home | Current Version | Previous Version | Text Only | Print | Product List | Glossary On
Versions: 1 2 3 4 5 6 7 8 9 10 11 12 13 14
771
FTAK31 PAJN 081735
TAFAYA
TAF
PAYA 081735Z 0818/0918 08004KT P6SM VCFG FEW020 SCT060 OVC200
     FM090200 07004KT 3SM -RA BR FEW007 BKN010 OVC020
     FM090600 06010KT 2SM -RA BR BKN006 OVC010
      AMD LTD TO CLD VIS AND WIND 0909/0912=

USA.gov is the U.S. government's official web portal to all federal, state and local government web resources and services.